Time;durP1;ratioP1;P1;durP2;ratioP2;P2;SDS_P1;SDS_P2;PMS_P1;PMS_P2;Temp;Humidity;BMP_temperature;BMP_pressure;BME280_temperature;BME280_humidity;BME280_pressure;Samples;Min_cycle;Max_cycle;Signal;HPM_P1;HPM_P2
2021/08/28 00:01:54;;;;;;;15.80;13.30;;;;;;;8.80;79.20;99192.52;471681;1194;143328;-61
2021/08/28 00:11:58;;;;;;;17.80;13.30;;;;;;;8.69;79.10;99193.39;472120;1193;142441;-59
2021/08/28 00:22:01;;;;;;;17.20;15.10;;;;;;;8.64;79.39;99189.84;465077;1195;141649;-61
2021/08/28 00:32:05;;;;;;;16.30;14.60;;;;;;;8.56;79.45;99189.80;471691;1193;141725;-61
2021/08/28 00:42:08;;;;;;;26.00;16.10;;;;;;;8.55;80.08;99188.48;472873;1194;141285;-61
2021/08/28 00:52:12;;;;;;;17.20;14.60;;;;;;;8.49;79.78;99192.66;472828;1194;141552;-61
2021/08/28 01:02:19;;;;;;;18.80;13.40;;;;;;;8.38;79.57;99195.77;472003;1194;141678;-61
2021/08/28 01:12:25;;;;;;;17.00;13.50;;;;;;;8.33;79.49;99200.27;472862;1194;142422;-62
2021/08/28 01:22:29;;;;;;;21.40;13.80;;;;;;;8.28;79.67;99200.36;472447;1194;141240;-61
2021/08/28 01:32:33;;;;;;;34.20;24.80;;;;;;;8.24;80.01;99214.05;471641;1195;143244;-62
2021/08/28 01:42:38;;;;;;;90.70;80.80;;;;;;;8.21;80.20;99215.80;472705;1194;140974;-61
2021/08/28 01:52:41;;;;;;;93.70;84.10;;;;;;;8.10;79.85;99218.38;467499;1194;141522;-60
2021/08/28 02:02:45;;;;;;;77.80;69.60;;;;;;;8.00;80.00;99219.45;472929;1182;141980;-61
2021/08/28 02:12:53;;;;;;;70.50;62.90;;;;;;;7.92;79.93;99218.20;472776;1194;141227;-61
2021/08/28 02:23:01;;;;;;;88.90;79.40;;;;;;;7.88;80.26;99233.63;468795;1193;144820;-61
2021/08/28 02:33:07;;;;;;;112.40;101.70;;;;;;;7.88;80.48;99237.80;472707;1193;142052;-60
2021/08/28 02:43:11;;;;;;;143.70;128.80;;;;;;;7.93;80.97;99236.61;472640;1194;142463;-61
2021/08/28 02:53:18;;;;;;;127.00;113.50;;;;;;;7.85;80.69;99228.53;471800;1194;141062;-60
2021/08/28 03:03:21;;;;;;;125.20;112.20;;;;;;;7.80;80.60;99227.98;472700;1194;142471;-61
2021/08/28 03:13:25;;;;;;;123.50;105.70;;;;;;;7.76;80.51;99225.25;472653;1194;142669;-61
2021/08/28 03:23:31;;;;;;;101.80;91.30;;;;;;;7.77;80.63;99229.70;469571;1194;145368;-61
2021/08/28 03:33:35;;;;;;;57.40;51.90;;;;;;;7.72;80.82;99230.66;467683;1194;142103;-61
2021/08/28 03:43:41;;;;;;;32.60;29.10;;;;;;;7.74;80.80;99233.55;471816;1194;142071;-59
2021/08/28 03:53:44;;;;;;;43.20;38.50;;;;;;;7.71;81.06;99235.95;472329;1194;142624;-61
2021/08/28 04:03:47;;;;;;;58.50;52.20;;;;;;;7.78;80.91;99226.51;471789;1194;141933;-60
2021/08/28 04:13:51;;;;;;;54.00;48.10;;;;;;;7.94;80.84;99228.70;455546;1194;141249;-60
2021/08/28 04:23:55;;;;;;;66.60;59.30;;;;;;;8.22;80.59;99226.87;472703;1194;141188;-61
2021/08/28 04:34:01;;;;;;;58.70;52.40;;;;;;;8.64;80.03;99232.40;472665;1194;141536;-61
2021/08/28 04:44:05;;;;;;;49.30;41.30;;;;;;;9.16;79.49;99243.18;461586;1194;142086;-58
2021/08/28 04:54:08;;;;;;;40.80;36.40;;;;;;;9.78;78.76;99243.02;472506;1194;144512;-60
2021/08/28 05:04:11;;;;;;;35.40;31.30;;;;;;;10.54;78.08;99239.86;472520;1193;141688;-60
2021/08/28 05:14:14;;;;;;;21.60;19.40;;;;;;;11.54;77.09;99239.13;471863;1194;141442;-61
2021/08/28 05:24:17;;;;;;;15.90;11.90;;;;;;;13.01;75.85;99243.90;472730;1194;143750;-61
2021/08/28 05:34:21;;;;;;;10.60;8.80;;;;;;;17.52;72.25;99239.15;468815;1183;142557;-62
2021/08/28 05:44:25;;;;;;;10.10;7.90;;;;;;;22.65;64.73;99243.36;471560;1194;141739;-63
2021/08/28 05:54:28;;;;;;;8.50;6.80;;;;;;;28.07;57.80;99238.89;467760;1194;141692;-62
2021/08/28 06:04:32;;;;;;;7.20;5.70;;;;;;;33.18;49.28;99233.31;472814;1194;141120;-71
2021/08/28 06:14:35;;;;;;;5.50;4.90;;;;;;;36.56;42.64;99231.35;471876;1193;140367;-62
2021/08/28 06:24:38;;;;;;;10.60;5.40;;;;;;;39.88;37.86;99229.45;472933;1194;140557;-64
2021/08/28 06:34:42;;;;;;;4.50;4.20;;;;;;;42.50;33.19;99225.90;472304;1183;141725;-64
2021/08/28 06:44:45;;;;;;;4.40;4.10;;;;;;;42.51;30.33;99235.80;461413;1194;144716;-64
2021/08/28 06:54:48;;;;;;;6.50;3.30;;;;;;;43.39;28.49;99239.08;469841;1194;140814;-64
2021/08/28 07:04:52;;;;;;;3.80;3.50;;;;;;;45.31;26.17;99235.50;472097;1183;140726;-64
2021/08/28 07:14:55;;;;;;;2.90;2.70;;;;;;;46.51;24.14;99226.15;472747;1194;140074;-65
2021/08/28 07:24:59;;;;;;;4.00;2.80;;;;;;;46.99;22.51;99230.16;472873;1194;141258;-65
2021/08/28 07:35:02;;;;;;;3.00;2.70;;;;;;;47.69;21.52;99234.21;472164;1194;142114;-64
2021/08/28 07:45:08;;;;;;;3.40;3.10;;;;;;;49.29;20.04;99241.04;472946;1194;142531;-65
2021/08/28 07:55:13;;;;;;;4.10;3.90;;;;;;;50.17;18.92;99246.08;472961;1193;140105;-65
2021/08/28 08:05:16;;;;;;;4.90;4.60;;;;;;;51.58;17.89;99241.57;472095;1194;141413;-64
2021/08/28 08:15:21;;;;;;;7.10;6.50;;;;;;;52.54;16.55;99238.73;472991;1194;140831;-65
2021/08/28 08:25:24;;;;;;;;;;;;;;;52.02;16.03;99235.16;472950;1194;143346;-65
2021/08/28 08:35:27;;;;;;;2.30;1.90;;;;;;;49.33;15.96;99223.05;472650;1191;127413;-64
2021/08/28 08:45:31;;;;;;;3.00;1.70;;;;;;;40.39;19.20;99205.14;472949;1194;141041;-63
2021/08/28 08:55:34;;;;;;;;;;;;;;;34.35;22.70;99204.66;472964;1193;141220;-63
2021/08/28 09:05:49;;;;;;;3.30;1.20;;;;;;;29.99;25.81;99217.48;473225;1194;127341;-62
2021/08/28 09:15:55;;;;;;;2.30;1.10;;;;;;;27.64;28.56;99229.10;472935;1194;140908;-62
2021/08/28 09:26:26;;;;;;;1.60;1.20;;;;;;;27.36;29.92;99221.92;472368;1190;140892;-61
2021/08/28 09:36:29;;;;;;;2.30;1.50;;;;;;;27.20;30.43;99219.20;472792;1194;141511;-62
2021/08/28 09:46:32;;;;;;;1.40;1.30;;;;;;;26.71;30.85;99223.48;472971;1194;144410;-61
2021/08/28 09:56:41;;;;;;;1.20;1.10;;;;;;;26.57;30.96;99220.56;472164;1194;141842;-62
2021/08/28 10:06:46;;;;;;;2.60;1.30;;;;;;;26.04;31.62;99213.60;472898;1194;140855;-62
2021/08/28 10:16:50;;;;;;;1.40;1.30;;;;;;;25.92;32.32;99212.77;472147;1194;142244;-61
2021/08/28 10:26:54;;;;;;;1.60;1.20;;;;;;;26.31;31.96;99208.46;469102;1194;140682;-62
2021/08/28 10:36:57;;;;;;;1.90;1.50;;;;;;;25.35;32.74;99208.88;472968;1194;141091;-62
2021/08/28 10:47:05;;;;;;;1.10;1.00;;;;;;;24.33;33.75;99214.73;472148;1194;140858;-62
2021/08/28 10:57:19;;;;;;;2.10;1.30;;;;;;;23.95;34.78;99215.94;472855;1193;141245;-63
2021/08/28 11:07:27;;;;;;;1.20;1.10;;;;;;;24.16;35.00;99214.39;468304;1194;141456;-61
2021/08/28 11:17:38;;;;;;;1.60;1.30;;;;;;;24.31;34.91;99208.47;462831;1194;141466;-62
2021/08/28 11:27:43;;;;;;;1.60;1.30;;;;;;;24.32;34.83;99204.10;472997;1194;142364;-61
2021/08/28 11:37:46;;;;;;;2.30;2.10;;;;;;;24.51;35.05;99207.25;472154;1194;141624;-62
2021/08/28 11:47:49;;;;;;;1.40;1.30;;;;;;;24.95;35.03;99210.95;472925;1194;141819;-61
2021/08/28 11:58:04;;;;;;;1.90;1.30;;;;;;;24.79;35.73;99213.20;472949;1195;140915;-62
2021/08/28 12:08:08;;;;;;;2.30;1.90;;;;;;;24.63;35.88;99223.24;471836;1195;140590;-62
2021/08/28 12:18:11;;;;;;;1.80;1.70;;;;;;;24.24;36.28;99225.21;473141;1192;140795;-61
2021/08/28 12:28:14;;;;;;;1.70;1.60;;;;;;;24.07;36.55;99220.73;472951;1194;143923;-62
2021/08/28 12:38:17;;;;;;;1.40;1.30;;;;;;;23.73;37.21;99220.34;471897;1195;142175;-62
2021/08/28 12:48:20;;;;;;;1.60;1.50;;;;;;;23.36;38.02;99223.70;462341;1195;141093;-59
2021/08/28 12:58:24;;;;;;;1.40;1.30;;;;;;;23.20;38.78;99223.16;456156;1195;141027;-62
2021/08/28 13:08:31;;;;;;;1.80;1.50;;;;;;;23.12;38.54;99217.42;471575;1194;139793;-65
2021/08/28 13:18:34;;;;;;;1.90;1.30;;;;;;;23.05;38.57;99220.00;472535;1195;140819;-63
2021/08/28 13:28:45;;;;;;;1.60;1.50;;;;;;;23.05;38.62;99221.47;472138;1193;140036;-61
2021/08/28 13:38:49;;;;;;;2.40;1.10;;;;;;;22.66;38.96;99223.98;472615;1194;140032;-63
2021/08/28 13:48:52;;;;;;;3.40;1.30;;;;;;;22.27;39.70;99219.94;472848;1194;141463;-63
2021/08/28 13:58:55;;;;;;;2.50;1.40;;;;;;;22.21;40.60;99216.69;467500;1195;141202;-62
2021/08/28 14:08:59;;;;;;;4.80;1.60;;;;;;;22.17;41.05;99216.13;472916;1194;140728;-62
2021/08/28 14:19:02;;;;;;;1.40;1.00;;;;;;;22.08;41.39;99219.88;472924;1194;141162;-62
2021/08/28 14:29:05;;;;;;;1.00;0.90;;;;;;;22.26;40.68;99220.17;471878;1191;140822;-62
2021/08/28 14:39:08;;;;;;;4.60;0.90;;;;;;;22.04;41.13;99223.27;472836;1194;143645;-62
2021/08/28 14:49:12;;;;;;;7.60;1.00;;;;;;;22.00;41.42;99219.14;472953;1194;141631;-63
2021/08/28 14:59:15;;;;;;;2.10;1.00;;;;;;;21.97;41.39;99220.90;467130;1195;140714;-63
2021/08/28 15:09:19;;;;;;;2.40;2.10;;;;;;;21.88;41.90;99223.59;472538;1194;140387;-62
2021/08/28 15:19:22;;;;;;;1.00;1.00;;;;;;;21.54;41.90;99229.59;461728;1194;139985;-62
2021/08/28 15:29:27;;;;;;;1.70;1.00;;;;;;;21.21;42.90;99234.08;468094;1194;140742;-61
2021/08/28 15:39:30;;;;;;;2.30;1.30;;;;;;;20.89;43.41;99232.73;458763;1195;140401;-60
2021/08/28 15:49:33;;;;;;;4.10;1.30;;;;;;;20.74;44.00;99229.70;467476;1195;141139;-59
2021/08/28 15:59:36;;;;;;;2.50;1.20;;;;;;;20.44;44.74;99227.95;468147;1191;140129;-58
2021/08/28 16:09:40;;;;;;;1.80;1.60;;;;;;;20.21;45.77;99225.09;472265;1194;144616;-61
2021/08/28 16:19:44;;;;;;;2.60;2.10;;;;;;;19.93;46.36;99223.84;471599;1194;141417;-60
2021/08/28 16:29:48;;;;;;;5.90;2.70;;;;;;;19.44;47.32;99223.27;472329;1192;140462;-61
2021/08/28 16:39:51;;;;;;;11.40;2.40;;;;;;;19.03;48.69;99228.77;472360;1194;140588;-60
2021/08/28 16:49:54;;;;;;;4.90;2.20;;;;;;;18.73;49.62;99236.84;449467;1195;10001847;-60
2021/08/28 16:59:57;;;;;;;2.10;2.00;;;;;;;18.39;51.02;99239.46;466756;1194;140469;-59
2021/08/28 17:10:01;;;;;;;5.00;2.60;;;;;;;18.06;51.66;99237.83;457781;1194;140601;-58
2021/08/28 17:20:07;;;;;;;8.60;4.10;;;;;;;17.61;53.15;99237.49;463309;1194;143297;-58
2021/08/28 17:30:14;;;;;;;7.80;5.10;;;;;;;17.16;55.09;99243.54;472734;1191;140826;-60
2021/08/28 17:40:17;;;;;;;6.00;4.30;;;;;;;16.67;56.63;99244.81;472164;1193;140334;-60
2021/08/28 17:50:23;;;;;;;9.80;6.90;;;;;;;16.21;58.06;99249.32;471424;1194;142931;-59
2021/08/28 18:00:27;;;;;;;24.00;17.20;;;;;;;15.75;59.31;99258.65;472374;1183;141737;-62
2021/08/28 18:10:31;;;;;;;14.40;9.50;;;;;;;15.34;60.67;99267.20;470778;1194;141860;-62
2021/08/28 18:20:35;;;;;;;12.50;7.20;;;;;;;14.90;61.74;99273.33;468080;1193;141601;-63
2021/08/28 18:30:38;;;;;;;13.60;8.10;;;;;;;14.56;62.53;99285.30;467607;1194;141140;-62
2021/08/28 18:40:41;;;;;;;7.50;6.30;;;;;;;14.23;63.35;99289.38;472020;1191;141663;-60
2021/08/28 18:50:44;;;;;;;10.20;8.40;;;;;;;13.99;64.31;99293.10;469306;1194;145152;-61
2021/08/28 19:00:48;;;;;;;11.40;7.40;;;;;;;13.72;64.92;99291.04;468557;1194;141409;-61
2021/08/28 19:10:52;;;;;;;17.40;11.30;;;;;;;13.47;65.56;99295.02;455641;1194;141441;-60
2021/08/28 19:20:55;;;;;;;13.70;9.20;;;;;;;13.25;66.14;99303.59;466187;1194;141559;-58
2021/08/28 19:30:59;;;;;;;22.50;13.00;;;;;;;12.99;66.33;99297.23;469948;1194;141787;-60
2021/08/28 19:41:02;;;;;;;16.10;12.10;;;;;;;12.78;67.15;99302.17;468174;1191;141964;-61
2021/08/28 19:51:06;;;;;;;15.90;12.00;;;;;;;12.57;67.66;99302.38;472378;1194;142418;-61
2021/08/28 20:01:10;;;;;;;16.50;12.50;;;;;;;12.37;68.00;99299.30;472385;1194;142212;-61
2021/08/28 20:11:14;;;;;;;23.80;14.90;;;;;;;12.18;68.55;99297.19;469067;1194;142690;-61
2021/08/28 20:21:18;;;;;;;20.30;14.80;;;;;;;12.02;68.98;99302.23;472647;1193;142510;-61
2021/08/28 20:31:22;;;;;;;18.00;11.00;;;;;;;11.83;69.46;99305.01;469520;1194;141714;-60
2021/08/28 20:41:26;;;;;;;16.10;13.10;;;;;;;11.70;70.19;99309.98;456502;1190;141805;-63
2021/08/28 20:51:32;;;;;;;16.30;13.90;;;;;;;11.51;70.19;99315.59;472714;1194;142210;-61
2021/08/28 21:01:35;;;;;;;20.20;13.90;;;;;;;11.34;70.28;99313.62;464266;1194;141692;-61
2021/08/28 21:11:41;;;;;;;24.20;14.20;;;;;;;11.18;70.26;99314.77;472707;1194;141490;-63
2021/08/28 21:21:44;;;;;;;21.00;15.40;;;;;;;11.05;70.85;99314.66;473020;1191;143368;-62
2021/08/28 21:31:48;;;;;;;25.60;15.30;;;;;;;10.95;71.29;99306.73;472003;1194;141115;-62
2021/08/28 21:41:52;;;;;;;17.30;14.70;;;;;;;10.87;71.56;99310.45;473026;1190;141600;-62
2021/08/28 21:51:55;;;;;;;21.90;16.30;;;;;;;10.72;71.39;99322.15;462425;1194;141600;-61
2021/08/28 22:01:58;;;;;;;21.00;16.60;;;;;;;10.59;71.79;99319.20;471973;1194;142421;-61
2021/08/28 22:12:02;;;;;;;20.20;15.20;;;;;;;10.45;71.93;99313.96;464328;1194;141990;-60
2021/08/28 22:22:05;;;;;;;20.70;17.70;;;;;;;10.34;72.23;99321.20;469813;1194;141173;-61
2021/08/28 22:32:10;;;;;;;22.60;16.20;;;;;;;10.18;72.36;99311.58;455624;1201;141833;-59
2021/08/28 22:42:14;;;;;;;21.10;18.90;;;;;;;10.07;72.68;99318.63;456192;1195;141570;-60
2021/08/28 22:52:18;;;;;;;20.70;17.00;;;;;;;9.96;72.84;99315.13;465598;1194;141935;-61
2021/08/28 23:02:21;;;;;;;23.90;18.80;;;;;;;9.89;73.16;99308.06;465558;1193;144428;-60
2021/08/28 23:12:26;;;;;;;24.80;16.30;;;;;;;9.81;73.22;99300.54;472903;1194;140867;-61
2021/08/28 23:22:29;;;;;;;21.40;16.20;;;;;;;9.74;73.64;99299.39;472875;1194;144069;-61
2021/08/28 23:32:32;;;;;;;23.80;17.70;;;;;;;9.69;73.72;99297.96;472010;1194;141819;-62
2021/08/28 23:42:36;;;;;;;19.40;15.40;;;;;;;9.63;73.52;99302.37;472866;1194;141531;-61
2021/08/28 23:52:40;;;;;;;29.20;20.80;;;;;;;9.64;74.34;99300.88;472198;1191;166869;-60
